createdAt,value
2023-04-01T00:04:44.705Z,19.17
2023-04-01T00:09:48.858Z,19.08
2023-04-01T00:14:51.574Z,19.05
2023-04-01T00:19:55.516Z,18.97
2023-04-01T00:24:59.613Z,18.93
2023-04-01T00:30:27.730Z,18.89
2023-04-01T00:35:30.774Z,18.82
2023-04-01T00:40:37.390Z,18.77
2023-04-01T00:45:42.143Z,18.72
2023-04-01T00:50:47.190Z,18.68
2023-04-01T00:55:56.338Z,18.64
2023-04-01T01:01:00.992Z,18.57
2023-04-01T01:06:13.277Z,18.53
2023-04-01T01:11:23.564Z,18.51
2023-04-01T01:16:29.091Z,18.46
2023-04-01T01:21:53.877Z,18.41
2023-04-01T01:27:03.814Z,18.36
2023-04-01T01:32:17.571Z,18.32
2023-04-01T01:37:23.450Z,18.31
2023-04-01T01:42:28.169Z,18.26
2023-04-01T01:47:31.644Z,18.22
2023-04-01T01:52:36.024Z,18.23
2023-04-01T01:57:40.168Z,18.16
2023-04-01T02:02:53.314Z,18.11
2023-04-01T02:08:03.643Z,18.07
2023-04-01T02:13:12.070Z,18.05
2023-04-01T02:18:15.686Z,18.02
2023-04-01T02:23:20.025Z,17.96
2023-04-01T02:28:23.027Z,17.92
2023-04-01T02:33:25.973Z,17.89
2023-04-01T02:38:30.189Z,17.87
2023-04-01T02:43:33.003Z,17.83
2023-04-01T02:48:35.788Z,17.80
2023-04-01T02:53:39.860Z,17.76
2023-04-01T02:58:42.663Z,17.71
2023-04-01T03:03:45.425Z,17.67
2023-04-01T03:08:49.648Z,17.66
2023-04-01T03:13:52.424Z,17.62
2023-04-01T03:18:57.810Z,17.61
2023-04-01T03:24:11.816Z,17.57
2023-04-01T03:29:16.546Z,17.54
2023-04-01T03:34:20.368Z,17.52
2023-04-01T03:39:24.612Z,17.50
2023-04-01T03:44:27.304Z,17.45
2023-04-01T03:49:33.049Z,17.44
2023-04-01T03:54:37.480Z,17.40
2023-04-01T03:59:40.427Z,17.38
2023-04-01T04:04:43.651Z,17.35
2023-04-01T04:09:48.761Z,17.31
2023-04-01T04:14:51.591Z,17.30
2023-04-01T04:19:54.348Z,17.30
2023-04-01T04:24:59.394Z,17.27
2023-04-01T04:30:02.264Z,17.24
2023-04-01T04:35:07.436Z,17.21
2023-04-01T04:40:12.818Z,17.20
2023-04-01T04:45:16.162Z,17.19
2023-04-01T04:50:27.950Z,17.14
2023-04-01T04:55:32.552Z,17.14
2023-04-01T05:00:54.001Z,17.12
2023-04-01T05:06:02.451Z,17.10
2023-04-01T05:11:13.598Z,17.07
2023-04-01T05:16:19.500Z,17.03
2023-04-01T05:21:22.324Z,17.03
2023-04-01T05:26:26.452Z,17.00
2023-04-01T05:31:29.448Z,16.98
2023-04-01T05:36:34.059Z,16.98
2023-04-01T05:41:38.523Z,16.96
2023-04-01T05:46:41.369Z,16.93
2023-04-01T05:51:52.137Z,16.92
2023-04-01T05:56:56.519Z,17.13
2023-04-01T06:02:00.003Z,17.60
2023-04-01T06:07:03.218Z,18.11
2023-04-01T06:12:38.217Z,18.57
2023-04-01T06:17:50.249Z,18.96
2023-04-01T06:23:19.880Z,19.29
2023-04-01T06:28:45.961Z,19.51
2023-04-01T06:33:58.323Z,19.65
2023-04-01T06:39:15.310Z,19.78
2023-04-01T06:44:26.593Z,19.79
2023-04-01T06:49:53.976Z,19.80
2023-04-01T06:55:25.436Z,19.84
2023-04-01T07:00:57.162Z,19.84
2023-04-01T07:06:02.136Z,19.82
2023-04-01T07:11:06.082Z,19.81
2023-04-01T07:16:32.368Z,19.78
2023-04-01T07:21:38.014Z,19.74
2023-04-01T07:26:51.276Z,19.70
2023-04-01T07:32:18.377Z,19.64
2023-04-01T07:37:26.732Z,19.59
2023-04-01T07:42:37.747Z,19.46
2023-04-01T07:47:57.623Z,19.40
2023-04-01T07:53:10.355Z,19.37
2023-04-01T07:58:18.415Z,19.29
2023-04-01T08:03:40.938Z,19.22
2023-04-01T08:08:52.944Z,19.14
2023-04-01T08:14:16.224Z,19.12
2023-04-01T08:19:42.363Z,19.06
2023-04-01T08:24:48.296Z,18.98
2023-04-01T08:30:00.912Z,18.93
2023-04-01T08:35:10.652Z,18.86
2023-04-01T08:40:32.392Z,18.84
2023-04-01T08:45:50.011Z,18.79
2023-04-01T08:57:26.346Z,18.68
2023-04-01T09:03:21.658Z,18.63
2023-04-01T09:08:42.339Z,18.59
2023-04-01T09:14:19.779Z,18.53
2023-04-01T09:19:46.942Z,18.44
2023-04-01T09:25:23.433Z,18.42
2023-04-01T09:30:45.766Z,18.37
2023-04-01T09:35:49.759Z,18.46
2023-04-01T09:40:58.679Z,18.48
2023-04-01T09:46:26.101Z,18.53
2023-04-01T09:51:36.196Z,18.54
2023-04-01T09:57:18.770Z,18.53
2023-04-01T10:03:15.539Z,18.51
2023-04-01T10:08:53.958Z,18.51
2023-04-01T10:14:29.451Z,18.51
2023-04-01T10:19:54.155Z,18.52
2023-04-01T10:25:23.999Z,18.48
2023-04-01T10:31:17.112Z,18.46
2023-04-01T10:36:54.668Z,18.43
2023-04-01T10:42:47.308Z,18.42
2023-04-01T10:48:57.094Z,18.41
2023-04-01T10:54:19.861Z,18.35
2023-04-01T11:00:32.516Z,18.35
2023-04-01T11:06:39.749Z,18.31
2023-04-01T11:12:34.068Z,18.32
2023-04-01T11:17:55.314Z,18.48
2023-04-01T11:23:13.781Z,18.58
2023-04-01T11:28:36.131Z,18.71
2023-04-01T11:33:45.284Z,18.76
2023-04-01T11:38:59.713Z,18.83
2023-04-01T11:44:23.772Z,18.85
2023-04-01T11:49:52.233Z,18.88
2023-04-01T11:55:30.876Z,18.88
2023-04-01T12:00:52.726Z,18.83
2023-04-01T12:05:57.229Z,18.82
2023-04-01T12:11:03.393Z,18.79
2023-04-01T12:16:18.789Z,18.75
2023-04-01T12:21:28.078Z,18.70
2023-04-01T12:26:43.751Z,18.66
2023-04-01T12:31:55.005Z,18.65
2023-04-01T12:37:04.917Z,18.58
2023-04-01T12:42:16.774Z,18.58
2023-04-01T12:47:41.526Z,18.55
2023-04-01T12:52:57.305Z,18.50
2023-04-01T12:58:13.079Z,18.48
2023-04-01T13:03:30.057Z,18.46
2023-04-01T13:08:41.453Z,18.44
2023-04-01T13:14:11.877Z,18.40
2023-04-01T13:19:23.893Z,18.35
2023-04-01T13:24:33.590Z,18.40
2023-04-01T13:29:38.701Z,18.46
2023-04-01T13:34:53.609Z,18.63
2023-04-01T13:40:07.133Z,18.70
2023-04-01T13:45:16.384Z,18.75
2023-04-01T13:50:38.064Z,18.85
2023-04-01T13:55:56.855Z,18.85
2023-04-01T14:01:07.712Z,18.91
2023-04-01T14:06:20.737Z,18.89
2023-04-01T14:11:28.408Z,18.91
2023-04-01T14:16:59.254Z,18.85
2023-04-01T14:33:27.786Z,18.76
2023-04-01T14:38:36.246Z,18.73
2023-04-01T14:44:03.595Z,18.69
2023-04-01T14:49:17.659Z,18.61
2023-04-01T14:54:23.846Z,18.57
2023-04-01T14:59:30.521Z,18.53
2023-04-01T15:04:49.390Z,18.48
2023-04-01T15:09:57.351Z,18.46
2023-04-01T15:15:19.002Z,18.44
2023-04-01T15:20:36.028Z,18.41
2023-04-01T15:25:49.236Z,18.35
2023-04-01T15:30:56.694Z,18.48
2023-04-01T15:36:06.518Z,18.58
2023-04-01T15:41:14.960Z,18.69
2023-04-01T15:46:44.311Z,18.82
2023-04-01T15:51:57.750Z,18.86
2023-04-01T15:57:12.431Z,18.90
2023-04-01T16:02:21.446Z,18.91
2023-04-01T16:07:59.321Z,18.92
2023-04-01T16:13:13.112Z,18.93
2023-04-01T16:18:27.601Z,18.90
2023-04-01T16:23:38.595Z,18.91
2023-04-01T16:28:47.223Z,18.87
2023-04-01T16:33:53.188Z,18.82
2023-04-01T16:39:10.927Z,18.76
2023-04-01T16:44:20.349Z,18.70
2023-04-01T16:49:41.960Z,18.66
2023-04-01T16:54:50.602Z,18.58
2023-04-01T16:59:59.678Z,18.53
2023-04-01T17:05:05.374Z,18.51
2023-04-01T17:10:28.788Z,18.45
2023-04-01T17:15:37.178Z,18.40
2023-04-01T17:20:44.510Z,18.34
2023-04-01T17:25:55.570Z,18.30
2023-04-01T17:31:05.028Z,18.27
2023-04-01T17:36:13.986Z,18.22
2023-04-01T17:41:28.183Z,18.22
2023-04-01T17:46:52.759Z,18.26
2023-04-01T18:30:34.934Z,18.29
2023-04-01T18:35:49.959Z,18.27
2023-04-01T18:40:56.556Z,18.24
2023-04-01T18:46:02.917Z,18.21
2023-04-01T18:51:13.462Z,18.15
2023-04-01T18:56:17.955Z,18.12
2023-04-01T19:01:26.576Z,18.08
2023-04-01T19:06:33.173Z,18.07
2023-04-01T19:55:58.211Z,18.15
2023-04-01T20:40:37.058Z,18.05
2023-04-01T20:45:45.721Z,18.05
2023-04-01T20:50:52.043Z,18.06
2023-04-01T21:34:44.446Z,17.92
2023-04-01T21:40:45.013Z,17.86
2023-04-01T21:46:06.813Z,17.82
2023-04-01T21:51:27.500Z,17.87
2023-04-01T21:56:54.014Z,18.06
2023-04-01T22:02:32.823Z,18.10
2023-04-01T22:07:41.166Z,18.17
2023-04-01T22:12:48.005Z,18.23
2023-04-01T22:17:55.949Z,18.27
2023-04-01T22:23:14.692Z,18.23
2023-04-01T22:28:21.838Z,18.22
2023-04-01T22:33:32.094Z,18.22
2023-04-01T22:38:48.333Z,18.20
2023-04-01T22:43:58.070Z,18.20
2023-04-01T22:49:04.719Z,18.16
2023-04-01T22:54:17.026Z,18.11
2023-04-01T22:59:23.280Z,18.08
2023-04-01T23:04:29.019Z,18.03
2023-04-01T23:09:33.844Z,17.96
2023-04-01T23:14:47.508Z,17.95
2023-04-01T23:19:54.879Z,17.89
2023-04-01T23:25:14.434Z,17.84
2023-04-01T23:30:48.902Z,17.77
2023-04-01T23:35:52.095Z,17.71
2023-04-01T23:40:57.068Z,17.67
2023-04-01T23:46:01.449Z,17.61
2023-04-01T23:51:05.302Z,17.59
2023-04-01T23:56:09.398Z,17.53
